Time;durP1;ratioP1;P1;durP2;ratioP2;P2;SDS_P1;SDS_P2;PMS_P1;PMS_P2;Temp;Humidity;BMP_temperature;BMP_pressure;BME280_temperature;BME280_humidity;BME280_pressure;Samples;Min_cycle;Max_cycle;Signal;HPM_P1;HPM_P2
2023/09/04 00:01:36;;;;;;;20.00;14.48;;;15.30;99.90;;;;;;5060681;28;20553;-75
2023/09/04 00:04:03;;;;;;;15.18;13.38;;;15.30;99.90;;;;;;5084546;28;20086;-76
2023/09/04 00:06:30;;;;;;;17.00;13.60;;;15.30;99.90;;;;;;5067107;28;20036;-76
2023/09/04 00:08:57;;;;;;;21.15;14.00;;;15.30;99.90;;;;;;5089105;28;20190;-76
2023/09/04 00:11:27;;;;;;;19.98;14.88;;;15.20;99.90;;;;;;5094990;28;20066;-76
2023/09/04 00:13:53;;;;;;;17.95;14.05;;;15.20;99.90;;;;;;5088432;28;20072;-76
2023/09/04 00:16:19;;;;;;;16.27;13.85;;;15.10;99.90;;;;;;5082523;28;20052;-76
2023/09/04 00:18:45;;;;;;;19.30;15.35;;;15.20;99.90;;;;;;5083472;28;20055;-75
2023/09/04 00:21:10;;;;;;;17.80;14.00;;;15.10;99.90;;;;;;5085616;28;20503;-75
2023/09/04 00:23:36;;;;;;;21.10;16.20;;;15.10;99.90;;;;;;5084606;28;20075;-75
2023/09/04 00:26:02;;;;;;;23.05;16.13;;;15.10;99.90;;;;;;5084695;28;20102;-76
2023/09/04 00:28:28;;;;;;;20.13;15.32;;;15.10;99.90;;;;;;5083480;28;20126;-76
2023/09/04 00:30:54;;;;;;;15.75;13.23;;;15.10;99.90;;;;;;5080012;28;20124;-76
2023/09/04 00:33:19;;;;;;;19.45;14.25;;;15.00;99.90;;;;;;5072843;28;20405;-75
2023/09/04 00:35:45;;;;;;;21.92;17.25;;;14.90;99.90;;;;;;5086551;28;20044;-76
2023/09/04 00:38:11;;;;;;;21.58;17.77;;;15.00;99.90;;;;;;5085587;28;20390;-76
2023/09/04 00:40:36;;;;;;;20.45;16.45;;;15.00;99.90;;;;;;5090447;28;20040;-76
2023/09/04 00:43:02;;;;;;;24.77;16.77;;;15.00;99.90;;;;;;5090493;28;20103;-76
2023/09/04 00:45:28;;;;;;;21.15;15.75;;;14.90;99.90;;;;;;5091556;28;20114;-76
2023/09/04 00:47:54;;;;;;;19.58;16.65;;;14.90;99.90;;;;;;5083955;28;20035;-76
2023/09/04 00:50:24;;;;;;;21.63;16.73;;;14.90;99.90;;;;;;5092358;28;20390;-75
2023/09/04 00:52:55;;;;;;;21.15;15.52;;;14.90;99.90;;;;;;5086596;28;20387;-75
2023/09/04 00:55:21;;;;;;;18.83;15.52;;;14.80;99.90;;;;;;5094279;28;20056;-76
2023/09/04 00:57:47;;;;;;;19.77;15.13;;;14.90;99.90;;;;;;5092732;28;20071;-75
2023/09/04 01:00:14;;;;;;;18.67;14.60;;;14.80;99.90;;;;;;5098766;28;20078;-76
2023/09/04 01:02:41;;;;;;;20.13;16.20;;;14.80;99.90;;;;;;5087214;28;20078;-76
2023/09/04 01:05:07;;;;;;;18.75;15.68;;;14.80;99.90;;;;;;5089672;28;20087;-76
2023/09/04 01:07:34;;;;;;;18.73;16.10;;;14.80;99.90;;;;;;5083497;28;20482;-76
2023/09/04 01:10:03;;;;;;;20.07;14.43;;;14.80;99.90;;;;;;5093506;28;20174;-76
2023/09/04 01:13:17;;;;;;;18.85;14.00;;;14.70;99.90;;;;;;5083122;28;20040;-75
2023/09/04 01:15:44;;;;;;;20.25;14.80;;;14.70;99.90;;;;;;5077876;28;20087;-76
2023/09/04 01:18:10;;;;;;;19.98;13.48;;;14.70;99.90;;;;;;5089686;28;20044;-76
2023/09/04 01:20:36;;;;;;;18.83;14.95;;;14.70;99.90;;;;;;5088368;28;20036;-76
2023/09/04 01:23:02;;;;;;;17.98;14.88;;;14.70;99.90;;;;;;5077838;28;20049;-77
2023/09/04 01:25:43;;;;;;;15.98;13.65;;;14.70;99.90;;;;;;5084248;28;20509;-77
2023/09/04 01:28:20;;;;;;;21.08;15.15;;;14.60;99.90;;;;;;5093659;28;20048;-77
2023/09/04 01:30:46;;;;;;;17.65;13.73;;;14.70;99.90;;;;;;5082761;28;20092;-76
2023/09/04 01:33:15;;;;;;;16.17;13.38;;;14.60;99.90;;;;;;5088963;28;20366;-76
2023/09/04 01:35:43;;;;;;;16.17;14.48;;;14.60;99.90;;;;;;5088101;28;20047;-76
2023/09/04 01:38:09;;;;;;;;;;;14.60;99.90;;;;;;5083479;28;20048;-76
2023/09/04 01:40:35;;;;;;;19.75;14.48;;;14.60;99.90;;;;;;5085924;28;19995;-77
2023/09/04 01:43:00;;;;;;;17.85;15.45;;;14.60;99.90;;;;;;5090305;28;20476;-77
2023/09/04 01:45:26;;;;;;;17.92;14.88;;;14.50;99.90;;;;;;5087563;28;20051;-76
2023/09/04 01:47:52;;;;;;;21.35;15.95;;;14.50;99.90;;;;;;5087363;28;20048;-76
2023/09/04 01:50:17;;;;;;;23.98;20.17;;;14.60;99.90;;;;;;5092263;28;20028;-76
2023/09/04 01:52:43;;;;;;;23.00;17.80;;;14.50;99.90;;;;;;5078878;28;20032;-75
2023/09/04 01:55:09;;;;;;;23.70;18.63;;;14.50;99.90;;;;;;5097047;28;20043;-75
2023/09/04 01:57:34;;;;;;;26.30;20.95;;;14.50;99.90;;;;;;5093593;28;20098;-75
2023/09/04 02:00:00;;;;;;;22.85;18.40;;;14.50;99.90;;;;;;5103475;28;20037;-76
2023/09/04 02:02:25;;;;;;;23.70;19.48;;;14.50;99.90;;;;;;5080080;28;20105;-76
2023/09/04 02:04:51;;;;;;;28.00;18.60;;;14.50;99.90;;;;;;5081962;28;20079;-76
2023/09/04 02:07:17;;;;;;;25.42;19.98;;;14.50;99.90;;;;;;5094167;28;20040;-75
2023/09/04 02:09:42;;;;;;;22.55;17.63;;;14.50;99.90;;;;;;5104327;28;20040;-75
2023/09/04 02:12:08;;;;;;;33.13;23.95;;;14.50;99.90;;;;;;5109820;27;20402;-75
2023/09/04 02:14:33;;;;;;;23.20;17.95;;;14.50;99.90;;;;;;5119136;28;20035;-76
2023/09/04 02:16:59;;;;;;;29.95;21.15;;;14.50;99.90;;;;;;5092520;28;20037;-75
2023/09/04 02:19:25;;;;;;;33.00;24.48;;;14.50;99.90;;;;;;5092660;28;20041;-75
2023/09/04 02:21:51;;;;;;;35.55;25.55;;;14.50;99.90;;;;;;5107220;28;20055;-75
2023/09/04 02:24:17;;;;;;;44.50;29.98;;;14.50;99.90;;;;;;5102415;28;20048;-76
2023/09/04 02:26:42;;;;;;;39.30;25.85;;;14.50;99.90;;;;;;5113922;28;20064;-75
2023/09/04 02:29:08;;;;;;;36.38;25.20;;;14.40;99.90;;;;;;5103983;28;20035;-75
2023/09/04 02:31:34;;;;;;;33.70;22.02;;;14.50;99.90;;;;;;5095360;28;20044;-75
2023/09/04 02:34:00;;;;;;;42.13;22.85;;;14.40;99.90;;;;;;5111253;28;20054;-75
2023/09/04 02:36:26;;;;;;;32.72;22.48;;;14.50;99.90;;;;;;5106383;28;20075;-75
2023/09/04 02:38:52;;;;;;;35.72;22.13;;;14.40;99.90;;;;;;5087116;28;20494;-75
2023/09/04 02:41:17;;;;;;;28.45;19.92;;;14.40;99.90;;;;;;5096918;28;20036;-75
2023/09/04 02:43:43;;;;;;;27.13;19.48;;;14.40;99.90;;;;;;5091852;28;20040;-75
2023/09/04 02:46:08;;;;;;;25.33;16.90;;;14.40;99.90;;;;;;5097565;28;20554;-76
2023/09/04 02:48:34;;;;;;;26.92;17.85;;;14.40;99.90;;;;;;5082791;28;20044;-76
2023/09/04 02:51:00;;;;;;;24.48;18.45;;;14.30;99.90;;;;;;5098497;28;20040;-76
2023/09/04 02:53:27;;;;;;;23.25;16.77;;;14.30;99.90;;;;;;5088101;28;20032;-76
2023/09/04 02:55:53;;;;;;;21.38;15.48;;;14.20;99.90;;;;;;5093591;28;20048;-76
2023/09/04 02:58:21;;;;;;;22.23;16.83;;;14.20;99.90;;;;;;5098048;28;20051;-76
2023/09/04 03:00:49;;;;;;;23.73;16.58;;;14.20;99.90;;;;;;5099408;28;20044;-76
2023/09/04 03:03:19;;;;;;;17.30;14.00;;;14.10;99.90;;;;;;5099399;28;20044;-76
2023/09/04 03:05:45;;;;;;;24.90;14.73;;;14.10;99.90;;;;;;5103680;28;20100;-76
2023/09/04 03:08:11;;;;;;;25.75;15.18;;;14.10;99.90;;;;;;5096616;28;20044;-76
2023/09/04 03:10:36;;;;;;;17.80;13.82;;;14.00;99.90;;;;;;5117764;27;20141;-76
2023/09/04 03:13:02;;;;;;;21.75;13.82;;;14.00;99.90;;;;;;5084401;28;20155;-76
2023/09/04 03:15:28;;;;;;;19.73;13.50;;;14.00;99.90;;;;;;5091944;28;20461;-76
2023/09/04 03:17:53;;;;;;;17.88;13.43;;;13.90;99.90;;;;;;5098105;28;20123;-76
2023/09/04 03:20:19;;;;;;;17.33;12.60;;;13.90;99.90;;;;;;5093005;28;20112;-76
2023/09/04 03:22:46;;;;;;;15.15;11.43;;;13.90;99.90;;;;;;5093188;28;20048;-75
2023/09/04 03:25:12;;;;;;;16.35;10.90;;;13.90;99.90;;;;;;5084933;28;20040;-75
2023/09/04 03:27:38;;;;;;;15.27;11.43;;;13.80;99.90;;;;;;5092308;28;20072;-75
2023/09/04 03:30:04;;;;;;;13.38;10.73;;;13.90;99.90;;;;;;5081759;28;20076;-75
2023/09/04 03:32:30;;;;;;;14.13;10.65;;;13.80;99.90;;;;;;5080685;28;20048;-75
2023/09/04 03:34:56;;;;;;;15.88;10.38;;;13.80;99.90;;;;;;5104490;28;20075;-75
2023/09/04 03:37:21;;;;;;;11.88;9.05;;;13.80;99.90;;;;;;5092492;28;20036;-75
2023/09/04 03:39:47;;;;;;;10.98;9.73;;;13.80;99.90;;;;;;5090875;28;20040;-76
2023/09/04 03:42:13;;;;;;;14.15;9.68;;;13.70;99.90;;;;;;5096684;28;20051;-75
2023/09/04 03:44:38;;;;;;;12.45;9.45;;;13.70;99.90;;;;;;5089441;28;20113;-76
2023/09/04 03:47:04;;;;;;;10.73;9.35;;;13.70;99.90;;;;;;5091698;28;20051;-76
2023/09/04 03:49:30;;;;;;;13.02;9.85;;;13.70;99.90;;;;;;5091171;28;20044;-76
2023/09/04 03:51:56;;;;;;;12.82;10.27;;;13.70;99.90;;;;;;5087046;28;20482;-75
2023/09/04 03:54:22;;;;;;;11.68;8.43;;;13.60;99.90;;;;;;5075608;28;20045;-76
2023/09/04 03:56:48;;;;;;;12.95;9.20;;;13.60;99.90;;;;;;5064150;28;20892;-76
2023/09/04 03:59:15;;;;;;;10.35;8.68;;;13.60;99.90;;;;;;5085585;28;20036;-76
2023/09/04 04:01:40;;;;;;;11.82;8.60;;;13.60;99.90;;;;;;5073776;28;20048;-76
2023/09/04 04:04:10;;;;;;;10.45;9.25;;;13.60;99.90;;;;;;5080418;28;20044;-76
2023/09/04 04:06:36;;;;;;;10.98;9.20;;;13.60;99.90;;;;;;5082835;28;20036;-76
2023/09/04 04:09:03;;;;;;;10.93;9.23;;;13.50;99.90;;;;;;5083204;28;20028;-76
2023/09/04 04:11:28;;;;;;;11.30;9.32;;;13.50;99.90;;;;;;5093474;28;20032;-76
2023/09/04 04:13:54;;;;;;;11.00;9.40;;;13.50;99.90;;;;;;5079828;28;20497;-76
2023/09/04 04:16:20;;;;;;;13.50;9.55;;;13.50;99.90;;;;;;5093006;28;20037;-76
2023/09/04 04:18:45;;;;;;;12.55;9.18;;;13.50;99.90;;;;;;5078436;28;20074;-76
2023/09/04 04:21:11;;;;;;;14.20;8.90;;;13.50;99.90;;;;;;5075345;28;20037;-76
2023/09/04 04:23:38;;;;;;;12.95;9.23;;;13.50;99.90;;;;;;5088898;28;20049;-77
2023/09/04 04:26:04;;;;;;;14.00;9.17;;;13.40;99.90;;;;;;5087034;28;20073;-76
2023/09/04 04:28:30;;;;;;;10.73;8.70;;;13.40;99.90;;;;;;5087118;28;20134;-76
2023/09/04 04:30:57;;;;;;;14.95;8.98;;;13.40;99.90;;;;;;5084251;28;20444;-76
2023/09/04 04:33:23;;;;;;;12.73;9.10;;;13.40;99.90;;;;;;5085874;28;20051;-76
2023/09/04 04:35:55;;;;;;;11.63;9.45;;;13.40;99.90;;;;;;5103691;28;20032;-76
2023/09/04 04:38:21;;;;;;;13.32;9.32;;;13.40;99.90;;;;;;5093629;28;20050;-76
2023/09/04 04:40:46;;;;;;;13.93;10.13;;;13.40;99.90;;;;;;5071853;28;20048;-77
2023/09/04 04:43:14;;;;;;;12.75;9.10;;;13.40;99.90;;;;;;5088001;28;20389;-76
2023/09/04 04:45:40;;;;;;;11.15;8.73;;;13.30;99.90;;;;;;5087973;28;20060;-76
2023/09/04 04:48:06;;;;;;;11.70;9.25;;;13.30;99.90;;;;;;5080517;28;20725;-76
2023/09/04 04:50:31;;;;;;;13.30;9.77;;;13.30;99.90;;;;;;5116684;27;20040;-75
2023/09/04 04:52:57;;;;;;;12.93;9.35;;;13.30;99.90;;;;;;5091439;28;20040;-75
2023/09/04 04:55:23;;;;;;;11.63;10.00;;;13.30;99.90;;;;;;5079465;28;20429;-75
2023/09/04 04:57:49;;;;;;;12.85;9.75;;;13.20;99.90;;;;;;5106112;28;20482;-76
2023/09/04 05:00:15;;;;;;;11.35;9.30;;;13.30;99.90;;;;;;5087926;28;21343;-76
2023/09/04 05:02:40;;;;;;;11.38;8.85;;;13.30;99.90;;;;;;5086175;28;20540;-76
2023/09/04 05:05:07;;;;;;;12.02;8.95;;;13.20;99.90;;;;;;5080318;28;20051;-75
2023/09/04 05:07:32;;;;;;;12.80;9.45;;;13.30;99.90;;;;;;5085754;28;20211;-75
2023/09/04 05:09:58;;;;;;;10.98;9.18;;;13.30;99.90;;;;;;5087484;28;20138;-76
2023/09/04 05:12:24;;;;;;;12.13;9.07;;;13.30;99.90;;;;;;5090784;28;20504;-76
2023/09/04 05:14:50;;;;;;;11.23;8.93;;;13.30;99.90;;;;;;5089966;28;20048;-76
2023/09/04 05:17:16;;;;;;;12.15;9.95;;;13.30;99.90;;;;;;5111033;27;20490;-76
2023/09/04 05:19:42;;;;;;;14.75;9.48;;;13.30;99.90;;;;;;5090462;28;20083;-77
2023/09/04 05:22:09;;;;;;;14.13;9.80;;;13.30;99.90;;;;;;5087204;28;20517;-76
2023/09/04 05:24:34;;;;;;;12.35;9.82;;;13.30;99.90;;;;;;5082980;28;20048;-76
2023/09/04 05:27:01;;;;;;;12.98;9.57;;;13.40;99.90;;;;;;5081245;28;20040;-75
2023/09/04 05:29:27;;;;;;;15.43;10.10;;;13.30;99.90;;;;;;5078217;28;20044;-76
2023/09/04 05:31:53;;;;;;;14.02;10.10;;;13.40;99.90;;;;;;5078167;28;20048;-76
2023/09/04 05:34:19;;;;;;;14.38;9.02;;;13.40;99.90;;;;;;5078533;28;20375;-76
2023/09/04 05:36:46;;;;;;;15.00;9.75;;;13.40;99.90;;;;;;5079161;28;20439;-76
2023/09/04 05:39:11;;;;;;;16.52;11.32;;;13.50;99.90;;;;;;5089998;28;20114;-76
2023/09/04 05:41:37;;;;;;;14.77;9.93;;;13.50;99.90;;;;;;5077851;28;20115;-76
2023/09/04 05:44:04;;;;;;;15.60;11.48;;;13.50;99.90;;;;;;5085109;28;20490;-76
2023/09/04 05:46:31;;;;;;;14.00;11.10;;;13.50;99.90;;;;;;5083458;28;20450;-76
2023/09/04 05:48:56;;;;;;;13.45;10.82;;;13.60;99.90;;;;;;5077756;28;20049;-76
2023/09/04 05:51:22;;;;;;;15.52;11.82;;;13.60;99.90;;;;;;5086344;28;20394;-76
2023/09/04 05:53:48;;;;;;;15.02;11.38;;;13.70;99.90;;;;;;5082496;28;20032;-76
2023/09/04 05:56:14;;;;;;;20.52;12.95;;;13.70;99.90;;;;;;5080108;28;20059;-76
2023/09/04 05:58:50;;;;;;;18.55;13.05;;;13.70;99.90;;;;;;5078257;28;20060;-76
2023/09/04 06:01:18;;;;;;;18.05;12.60;;;13.80;99.90;;;;;;5079686;28;20044;-75
2023/09/04 06:03:44;;;;;;;17.63;11.75;;;13.80;99.90;;;;;;5090123;28;20040;-75
2023/09/04 06:06:11;;;;;;;20.20;12.85;;;13.90;99.90;;;;;;5091731;28;20040;-75
2023/09/04 06:08:37;;;;;;;16.02;11.40;;;13.90;99.90;;;;;;5086503;28;20115;-75
2023/09/04 06:11:04;;;;;;;15.60;11.68;;;14.00;99.90;;;;;;5070612;28;20064;-75
2023/09/04 06:13:31;;;;;;;20.42;12.45;;;14.10;99.90;;;;;;5082514;28;20041;-76
2023/09/04 06:15:57;;;;;;;17.88;11.55;;;14.20;99.90;;;;;;5094425;28;20078;-75
2023/09/04 06:18:23;;;;;;;18.88;12.57;;;14.30;99.90;;;;;;5089609;28;20424;-75
2023/09/04 06:20:50;;;;;;;15.18;11.65;;;14.30;99.90;;;;;;5084403;28;20047;-75
2023/09/04 06:23:16;;;;;;;16.23;11.50;;;14.50;99.90;;;;;;5101260;28;20052;-74
2023/09/04 06:25:43;;;;;;;14.48;9.98;;;14.50;99.90;;;;;;5089782;28;20096;-75
2023/09/04 06:28:10;;;;;;;16.20;10.38;;;14.70;99.90;;;;;;5093555;28;20146;-76
2023/09/04 06:30:36;;;;;;;18.73;10.93;;;14.80;99.90;;;;;;5092351;28;20047;-76
2023/09/04 06:33:03;;;;;;;15.25;11.00;;;14.90;99.90;;;;;;5085674;28;20295;-76
2023/09/04 06:35:29;;;;;;;15.45;11.50;;;15.20;99.90;;;;;;5083646;28;20152;-75
2023/09/04 06:37:55;;;;;;;16.02;10.85;;;15.40;99.90;;;;;;5101016;28;20072;-75
2023/09/04 06:40:24;;;;;;;16.10;10.95;;;15.60;99.90;;;;;;5099481;28;20131;-76
2023/09/04 06:42:53;;;;;;;14.80;10.60;;;15.90;99.90;;;;;;5099948;28;20064;-76
2023/09/04 06:45:19;;;;;;;16.65;11.27;;;16.00;99.90;;;;;;5083137;28;20081;-75
2023/09/04 06:47:45;;;;;;;11.70;9.52;;;16.30;99.90;;;;;;5092200;28;20043;-76
2023/09/04 06:50:11;;;;;;;14.43;10.63;;;16.60;99.90;;;;;;5095722;28;20082;-76
2023/09/04 06:52:36;;;;;;;16.05;11.40;;;16.80;99.90;;;;;;5077448;28;20051;-76
2023/09/04 06:55:04;;;;;;;18.60;11.48;;;17.10;99.90;;;;;;5086489;28;20559;-76
2023/09/04 06:57:29;;;;;;;17.38;10.82;;;17.20;99.90;;;;;;5086930;28;20032;-75
2023/09/04 06:59:56;;;;;;;16.60;12.25;;;17.20;99.90;;;;;;5085813;28;20123;-75
2023/09/04 07:02:22;;;;;;;15.27;11.50;;;17.30;99.90;;;;;;5089463;28;20044;-76
2023/09/04 07:04:48;;;;;;;13.57;10.95;;;17.60;99.90;;;;;;5087682;28;20786;-76
2023/09/04 07:07:13;;;;;;;17.98;11.43;;;18.10;99.90;;;;;;5084855;28;20028;-76
2023/09/04 07:09:39;;;;;;;17.25;11.55;;;18.30;99.90;;;;;;5092465;28;20410;-76
2023/09/04 07:12:05;;;;;;;16.83;10.80;;;18.30;99.90;;;;;;5083066;28;20051;-75
2023/09/04 07:14:32;;;;;;;19.00;9.82;;;18.30;99.90;;;;;;5086730;28;20047;-76
2023/09/04 07:16:58;;;;;;;14.95;10.10;;;18.40;99.90;;;;;;5080482;28;20047;-76
2023/09/04 07:19:24;;;;;;;16.17;9.50;;;18.50;99.90;;;;;;5087888;28;20044;-76
2023/09/04 07:21:49;;;;;;;22.00;9.02;;;18.40;99.90;;;;;;5081524;28;20052;-77
2023/09/04 07:24:15;;;;;;;13.35;8.93;;;18.40;99.90;;;;;;5100699;28;20043;-76
2023/09/04 07:26:41;;;;;;;14.00;8.57;;;18.40;99.90;;;;;;5086211;28;20040;-75
2023/09/04 07:29:06;;;;;;;14.10;8.27;;;18.50;99.90;;;;;;5079668;28;20043;-76
2023/09/04 07:31:32;;;;;;;15.77;8.63;;;18.50;99.90;;;;;;5078705;28;20044;-78
2023/09/04 07:33:58;;;;;;;11.23;8.00;;;18.50;99.90;;;;;;5100071;28;20539;-76
2023/09/04 07:36:24;;;;;;;12.88;8.13;;;18.50;99.90;;;;;;5097552;28;20577;-76
2023/09/04 07:38:49;;;;;;;12.13;8.02;;;18.60;99.90;;;;;;5088418;28;20113;-75
2023/09/04 07:41:15;;;;;;;10.30;8.10;;;18.70;99.90;;;;;;5088752;28;20568;-75
2023/09/04 07:43:41;;;;;;;10.35;7.82;;;18.70;99.90;;;;;;5095634;28;20041;-76
2023/09/04 07:46:06;;;;;;;9.88;8.50;;;18.80;99.90;;;;;;5096772;28;20039;-75
2023/09/04 07:48:34;;;;;;;11.57;7.50;;;18.90;99.90;;;;;;5115417;27;20075;-75
2023/09/04 07:51:06;;;;;;;10.65;8.05;;;19.00;99.90;;;;;;5079739;28;20052;-76
2023/09/04 07:53:32;;;;;;;10.25;7.95;;;19.10;99.90;;;;;;5089459;28;20126;-75
2023/09/04 07:55:57;;;;;;;10.32;7.45;;;19.10;99.90;;;;;;5092919;28;20119;-75
2023/09/04 07:58:23;;;;;;;8.90;7.60;;;19.20;99.90;;;;;;5085300;28;20101;-75
2023/09/04 08:00:50;;;;;;;9.40;7.53;;;19.30;99.90;;;;;;5064942;28;20047;-75
2023/09/04 08:03:18;;;;;;;15.53;7.60;;;19.40;99.90;;;;;;5087659;28;20032;-75
2023/09/04 08:05:44;;;;;;;8.40;6.30;;;19.50;99.90;;;;;;5082717;28;20123;-76
2023/09/04 08:08:11;;;;;;;10.43;6.55;;;19.60;99.90;;;;;;5081563;28;20055;-75
2023/09/04 08:10:42;;;;;;;8.25;5.65;;;19.70;99.90;;;;;;5087682;28;20040;-75
2023/09/04 08:13:16;;;;;;;9.57;5.78;;;19.80;99.90;;;;;;5082058;28;20091;-75
2023/09/04 08:15:42;;;;;;;11.77;5.95;;;20.00;99.90;;;;;;5093283;28;20434;-75
2023/09/04 08:18:08;;;;;;;7.25;5.57;;;20.10;99.90;;;;;;5085263;28;20037;-74
2023/09/04 08:20:34;;;;;;;6.70;5.32;;;20.20;99.90;;;;;;5075584;28;20055;-75
2023/09/04 08:23:00;;;;;;;6.70;5.35;;;20.30;99.90;;;;;;5090645;28;20047;-75
2023/09/04 08:25:26;;;;;;;11.65;5.72;;;20.40;99.90;;;;;;5089543;28;20447;-76
2023/09/04 08:27:52;;;;;;;9.10;5.20;;;20.60;99.90;;;;;;5091076;28;20118;-75
2023/09/04 08:30:18;;;;;;;7.05;4.90;;;20.70;99.90;;;;;;5080528;28;20044;-75
2023/09/04 08:32:46;;;;;;;6.95;4.85;;;20.80;99.90;;;;;;5074417;28;20041;-75
2023/09/04 08:35:12;;;;;;;10.00;4.95;;;20.90;99.90;;;;;;5080304;28;20047;-75
2023/09/04 08:37:39;;;;;;;8.65;4.78;;;20.90;99.90;;;;;;5092567;28;20032;-73
2023/09/04 08:40:05;;;;;;;8.32;4.55;;;21.00;99.90;;;;;;5095331;28;20047;-75
2023/09/04 08:42:33;;;;;;;9.45;4.15;;;21.10;99.90;;;;;;5087673;28;20113;-75
2023/09/04 08:44:59;;;;;;;5.57;4.10;;;21.20;99.90;;;;;;5092794;28;20040;-75
2023/09/04 08:47:25;;;;;;;7.95;4.00;;;21.30;99.90;;;;;;5091529;28;20371;-77
2023/09/04 08:49:53;;;;;;;5.38;3.83;;;21.40;99.90;;;;;;5071481;28;20723;-75
2023/09/04 08:52:19;;;;;;;7.68;4.13;;;21.40;99.90;;;;;;5079117;28;20032;-77
2023/09/04 08:54:46;;;;;;;6.13;3.88;;;21.40;99.90;;;;;;5080130;28;20106;-78
2023/09/04 08:57:13;;;;;;;4.30;3.38;;;21.50;99.90;;;;;;5079031;28;20043;-77
2023/09/04 08:59:39;;;;;;;6.45;3.80;;;21.50;99.90;;;;;;5093629;28;20039;-76
2023/09/04 09:02:05;;;;;;;6.47;3.83;;;21.60;99.90;;;;;;5097383;28;20058;-76
2023/09/04 09:04:32;;;;;;;6.80;3.17;;;21.80;99.90;;;;;;5076973;28;20549;-77
2023/09/04 09:06:59;;;;;;;7.10;2.90;;;21.90;99.90;;;;;;5095773;28;20547;-77
2023/09/04 09:09:25;;;;;;;9.57;3.40;;;22.00;99.90;;;;;;5071864;28;20044;-76
2023/09/04 09:11:54;;;;;;;5.90;3.33;;;22.10;99.90;;;;;;5089870;28;20390;-77
2023/09/04 09:14:30;;;;;;;6.30;2.92;;;22.20;99.90;;;;;;5091127;28;20107;-75
2023/09/04 09:17:03;;;;;;;9.30;3.88;;;22.20;99.90;;;;;;5082637;28;20072;-76
2023/09/04 09:19:32;;;;;;;8.35;3.42;;;22.20;99.90;;;;;;5082775;28;20044;-74
2023/09/04 09:22:15;;;;;;;5.53;3.78;;;22.20;99.90;;;;;;5094035;28;20048;-77
2023/09/04 09:24:59;;;;;;;3.92;2.90;;;22.20;99.90;;;;;;5078563;28;20127;-75
2023/09/04 09:27:28;;;;;;;5.63;3.53;;;22.30;99.90;;;;;;5082930;28;20097;-76
2023/09/04 09:30:00;;;;;;;5.22;2.90;;;22.40;99.90;;;;;;5073797;28;20502;-74
2023/09/04 09:32:33;;;;;;;4.70;2.95;;;22.50;99.90;;;;;;5076192;28;20040;-74
2023/09/04 09:35:00;;;;;;;5.68;2.60;;;22.60;99.90;;;;;;5076955;28;20054;-74
2023/09/04 09:37:29;;;;;;;4.57;2.17;;;22.70;99.90;;;;;;5087958;28;20032;-75
2023/09/04 09:39:55;;;;;;;7.70;2.58;;;22.80;99.90;;;;;;5115792;28;20439;-75
2023/09/04 09:42:21;;;;;;;3.58;2.10;;;22.90;99.90;;;;;;5071720;28;20130;-77
2023/09/04 09:44:47;;;;;;;6.30;2.80;;;23.00;99.90;;;;;;5078164;28;20131;-76
2023/09/04 09:47:14;;;;;;;6.32;2.78;;;23.10;99.90;;;;;;5087647;28;20386;-75
2023/09/04 09:49:41;;;;;;;6.00;2.30;;;23.10;99.90;;;;;;5082285;28;20543;-75
2023/09/04 09:52:08;;;;;;;5.68;2.45;;;23.20;99.90;;;;;;5083921;28;20040;-75
2023/09/04 09:54:45;;;;;;;5.35;2.70;;;23.20;99.90;;;;;;5081092;28;20043;-75
2023/09/04 09:57:13;;;;;;;3.53;2.42;;;23.40;99.90;;;;;;5077561;28;20044;-75
2023/09/04 09:59:42;;;;;;;4.68;2.40;;;23.40;99.90;;;;;;5089674;28;20044;-75
2023/09/04 10:02:08;;;;;;;3.47;2.65;;;23.60;99.90;;;;;;5091802;28;20040;-75
2023/09/04 10:04:35;;;;;;;5.28;2.95;;;23.60;99.90;;;;;;5081091;28;20039;-75
2023/09/04 10:07:04;;;;;;;6.13;2.85;;;23.70;99.90;;;;;;5088096;28;20044;-76
2023/09/04 10:09:46;;;;;;;6.25;3.00;;;23.90;99.90;;;;;;5090332;28;20135;-77
2023/09/04 10:12:18;;;;;;;3.58;2.70;;;23.90;99.90;;;;;;5081943;28;20486;-76
2023/09/04 10:14:45;;;;;;;4.15;2.70;;;24.10;99.90;;;;;;5072961;28;20040;-74
2023/09/04 10:17:32;;;;;;;13.40;3.65;;;24.20;99.90;;;;;;5098550;28;20138;-76
2023/09/04 10:20:05;;;;;;;6.55;2.70;;;24.50;99.90;;;;;;5080048;28;20051;-76
2023/09/04 10:22:53;;;;;;;5.38;2.53;;;24.60;99.90;;;;;;5080020;28;20466;-77
2023/09/04 10:25:38;;;;;;;4.32;2.60;;;24.60;98.00;;;;;;5083507;28;20075;-75
2023/09/04 10:28:09;;;;;;;4.07;2.35;;;24.60;98.60;;;;;;5091916;28;20050;-77
2023/09/04 10:30:41;;;;;;;7.05;3.00;;;24.70;99.50;;;;;;5089118;28;20044;-77
2023/09/04 10:33:09;;;;;;;4.10;2.58;;;24.80;99.50;;;;;;5084565;28;20055;-77
2023/09/04 10:35:35;;;;;;;;;;;25.00;99.60;;;;;;5073036;28;20119;-75
2023/09/04 10:38:01;;;;;;;5.75;2.55;;;25.00;96.90;;;;;;5089393;27;20381;-76
2023/09/04 10:40:31;;;;;;;5.15;2.67;;;25.00;98.20;;;;;;5074880;28;20094;-76
2023/09/04 10:43:03;;;;;;;4.20;2.40;;;25.00;98.00;;;;;;5100046;28;20589;-76
2023/09/04 10:45:29;;;;;;;4.03;2.45;;;25.00;98.00;;;;;;5092452;28;20044;-77
2023/09/04 10:47:56;;;;;;;4.88;2.83;;;25.10;98.00;;;;;;5082878;28;20036;-78
2023/09/04 10:50:29;;;;;;;4.72;2.40;;;25.20;96.40;;;;;;5084264;28;20051;-79
2023/09/04 10:52:56;;;;;;;5.65;2.33;;;25.30;97.10;;;;;;5086565;28;20567;-77
2023/09/04 10:55:24;;;;;;;6.05;2.20;;;25.30;97.80;;;;;;5084639;28;20424;-77
2023/09/04 10:57:57;;;;;;;;;;;25.50;98.10;;;;;;5084463;28;20048;-77
2023/09/04 11:00:33;;;;;;;4.40;2.40;;;25.80;97.20;;;;;;5096040;28;19935;-78
2023/09/04 11:03:18;;;;;;;3.50;2.20;;;26.00;97.40;;;;;;5089748;28;20416;-76
2023/09/04 11:06:03;;;;;;;4.25;2.30;;;26.20;96.00;;;;;;5085422;28;20153;-78
2023/09/04 11:08:29;;;;;;;3.53;2.15;;;26.50;96.70;;;;;;5081353;28;20033;-77
2023/09/04 11:11:06;;;;;;;4.13;2.38;;;26.90;97.10;;;;;;5091015;28;20115;-77
2023/09/04 11:13:33;;;;;;;5.90;2.30;;;26.80;94.90;;;;;;5081647;28;20045;-77
2023/09/04 11:16:03;;;;;;;4.40;2.73;;;26.90;95.40;;;;;;5087325;28;20483;-78
2023/09/04 11:18:30;;;;;;;5.28;2.60;;;26.90;94.50;;;;;;5057554;28;20791;-78
2023/09/04 11:20:56;;;;;;;2.83;1.63;;;26.90;94.10;;;;;;5077061;28;20566;-76
2023/09/04 11:23:25;;;;;;;5.10;2.20;;;27.10;95.30;;;;;;5084042;28;20052;-78
2023/09/04 11:25:55;;;;;;;4.32;2.15;;;27.20;94.20;;;;;;5077595;28;20052;-78
2023/09/04 11:28:25;;;;;;;3.88;2.00;;;27.40;93.90;;;;;;5083743;28;20489;-77
2023/09/04 11:30:58;;;;;;;3.03;2.00;;;27.40;93.60;;;;;;5081540;28;20402;-77
2023/09/04 11:33:25;;;;;;;3.42;2.00;;;27.50;93.30;;;;;;5093497;28;20406;-77
2023/09/04 11:36:05;;;;;;;8.82;2.10;;;27.60;94.00;;;;;;5096626;28;20478;-77
2023/09/04 11:38:33;;;;;;;9.00;2.65;;;27.90;93.10;;;;;;5081293;28;20064;-77
2023/09/04 11:41:01;;;;;;;7.45;2.60;;;28.10;93.00;;;;;;5078649;28;20463;-77
2023/09/04 11:43:28;;;;;;;4.03;2.00;;;28.00;92.90;;;;;;5083152;28;20396;-78
2023/09/04 11:45:57;;;;;;;2.92;1.90;;;28.10;92.90;;;;;;5087793;28;20066;-77
2023/09/04 11:48:28;;;;;;;2.78;2.00;;;28.00;92.00;;;;;;5076948;28;20426;-77
2023/09/04 11:50:54;;;;;;;3.03;1.75;;;28.00;91.90;;;;;;5083655;28;20047;-77
2023/09/04 11:53:22;;;;;;;4.22;1.98;;;27.90;91.90;;;;;;5075919;28;20032;-75
2023/09/04 11:55:50;;;;;;;3.10;1.60;;;28.00;91.60;;;;;;5074723;28;20044;-76
2023/09/04 11:58:16;;;;;;;4.32;1.80;;;28.00;91.80;;;;;;5092427;28;20044;-77
2023/09/04 12:00:46;;;;;;;5.63;2.10;;;27.90;91.00;;;;;;5074212;28;20403;-77
2023/09/04 12:03:12;;;;;;;2.35;1.80;;;27.80;91.40;;;;;;5081423;28;20393;-77
2023/09/04 12:05:38;;;;;;;2.65;1.70;;;27.80;91.20;;;;;;5083388;28;20044;-78
2023/09/04 12:08:05;;;;;;;2.97;2.10;;;27.80;90.90;;;;;;5092762;28;21139;-75
2023/09/04 12:10:35;;;;;;;12.98;3.05;;;27.70;90.90;;;;;;5125061;27;20433;-79
2023/09/04 12:13:04;;;;;;;2.60;1.88;;;27.60;90.00;;;;;;5083457;28;20047;-76
2023/09/04 12:15:33;;;;;;;4.53;2.17;;;27.50;90.40;;;;;;5087475;28;20044;-78
2023/09/04 12:18:03;;;;;;;5.75;1.88;;;27.60;90.60;;;;;;5092640;28;20032;-78
2023/09/04 12:20:40;;;;;;;3.25;1.90;;;27.50;90.50;;;;;;5085922;28;20036;-78
2023/09/04 12:23:06;;;;;;;6.93;2.20;;;27.60;91.20;;;;;;5085284;28;21851;-78
2023/09/04 12:25:37;;;;;;;6.00;2.13;;;27.70;91.40;;;;;;5086368;28;20048;-78
2023/09/04 12:28:06;;;;;;;3.28;1.88;;;28.00;90.40;;;;;;5114936;27;20401;-78
2023/09/04 12:30:36;;;;;;;4.80;1.73;;;28.20;90.20;;;;;;5086389;28;20048;-77
2023/09/04 12:33:04;;;;;;;3.47;2.08;;;28.10;88.20;;;;;;5080153;28;20064;-76
2023/09/04 12:35:32;;;;;;;5.25;2.13;;;28.00;88.60;;;;;;5114100;27;20072;-77
2023/09/04 12:37:58;;;;;;;3.65;1.95;;;27.90;90.00;;;;;;5081117;28;20123;-77
2023/09/04 12:40:25;;;;;;;3.88;1.65;;;28.00;90.10;;;;;;5089189;28;20087;-77